createdAt,value
2023-03-21T00:03:59.561Z,13.40
2023-03-21T00:09:00.965Z,12.55
2023-03-21T00:14:04.835Z,12.90
2023-03-21T00:19:06.918Z,14.18
2023-03-21T00:24:08.492Z,11.73
2023-03-21T00:29:09.944Z,11.73
2023-03-21T00:39:17.871Z,11.80
2023-03-21T00:44:19.333Z,12.30
2023-03-21T00:49:20.979Z,11.40
2023-03-21T00:54:22.396Z,11.15
2023-03-21T00:59:23.850Z,12.65
2023-03-21T01:04:26.996Z,11.20
2023-03-21T01:09:28.369Z,10.23
2023-03-21T01:14:29.827Z,10.80
2023-03-21T01:19:44.741Z,10.95
2023-03-21T01:24:56.943Z,11.88
2023-03-21T01:35:04.296Z,11.43
2023-03-21T01:40:06.325Z,15.27
2023-03-21T01:45:27.738Z,13.18
2023-03-21T01:50:29.300Z,14.20
2023-03-21T01:55:31.359Z,13.90
2023-03-21T02:00:33.604Z,16.30
2023-03-21T02:05:40.266Z,18.25
2023-03-21T02:10:43.643Z,21.60
2023-03-21T02:15:49.890Z,22.38
2023-03-21T02:20:54.411Z,24.52
2023-03-21T02:26:14.388Z,26.42
2023-03-21T02:31:19.677Z,22.20
2023-03-21T02:36:27.014Z,23.52
2023-03-21T02:41:40.477Z,22.13
2023-03-21T02:47:05.469Z,21.77
2023-03-21T02:52:17.043Z,19.88
2023-03-21T02:57:31.330Z,21.05
2023-03-21T03:02:35.458Z,23.45
2023-03-21T03:07:42.236Z,22.73
2023-03-21T03:12:49.579Z,19.92
2023-03-21T03:18:11.187Z,22.23
2023-03-21T03:23:12.547Z,23.10
2023-03-21T03:28:15.954Z,18.17
2023-03-21T03:33:17.940Z,19.42
2023-03-21T03:38:21.626Z,18.02
2023-03-21T03:43:26.559Z,23.42
2023-03-21T03:48:27.965Z,18.10
2023-03-21T03:53:32.493Z,17.67
2023-03-21T03:58:44.827Z,16.92
2023-03-21T04:03:53.044Z,20.60
2023-03-21T04:09:03.480Z,18.50
2023-03-21T04:14:07.070Z,20.60
2023-03-21T04:19:08.890Z,20.23
2023-03-21T04:24:11.964Z,19.70
2023-03-21T04:29:13.335Z,19.30
2023-03-21T04:34:14.695Z,22.08
2023-03-21T04:39:16.791Z,21.38
2023-03-21T04:44:18.579Z,24.08
2023-03-21T04:49:20.020Z,24.95
2023-03-21T04:54:21.559Z,26.27
2023-03-21T04:59:22.894Z,24.67
2023-03-21T05:04:24.645Z,22.50
2023-03-21T05:09:26.366Z,25.98
2023-03-21T05:14:28.382Z,24.00
2023-03-21T05:19:40.381Z,25.08
2023-03-21T05:24:41.904Z,26.38
2023-03-21T05:29:43.454Z,24.92
2023-03-21T05:34:44.846Z,24.70
2023-03-21T05:39:46.235Z,28.40
2023-03-21T05:44:47.969Z,26.98
2023-03-21T05:49:49.902Z,28.55
2023-03-21T05:54:51.385Z,28.42
2023-03-21T05:59:52.737Z,25.73
2023-03-21T06:04:54.079Z,24.63
2023-03-21T06:09:55.529Z,23.92
2023-03-21T06:14:56.913Z,24.38
2023-03-21T06:20:01.124Z,21.60
2023-03-21T06:25:03.042Z,24.80
2023-03-21T06:30:04.904Z,22.00
2023-03-21T06:35:06.657Z,23.35
2023-03-21T06:40:09.613Z,28.55
2023-03-21T06:45:11.572Z,27.08
2023-03-21T06:50:13.075Z,27.05
2023-03-21T06:55:14.485Z,30.75
2023-03-21T07:00:16.111Z,30.27
2023-03-21T07:05:17.715Z,28.90
2023-03-21T07:10:19.268Z,34.00
2023-03-21T07:15:20.757Z,30.23
2023-03-21T07:20:22.198Z,25.60
2023-03-21T07:25:23.611Z,30.73
2023-03-21T07:30:25.331Z,27.13
2023-03-21T07:35:26.789Z,30.88
2023-03-21T07:40:28.214Z,29.40
2023-03-21T07:45:29.679Z,30.52
2023-03-21T07:50:31.412Z,28.40
2023-03-21T07:55:35.086Z,35.63
2023-03-21T08:00:36.552Z,34.28
2023-03-21T08:05:38.404Z,29.58
2023-03-21T08:10:41.916Z,29.65
2023-03-21T08:15:43.489Z,33.17
2023-03-21T08:20:44.854Z,34.28
2023-03-21T08:25:46.886Z,32.22
2023-03-21T08:30:48.902Z,28.67
2023-03-21T08:35:50.432Z,33.28
2023-03-21T08:40:51.864Z,32.28
2023-03-21T08:45:53.282Z,27.27
2023-03-21T08:50:55.868Z,25.80
2023-03-21T08:55:57.323Z,28.63
2023-03-21T09:00:58.694Z,22.40
2023-03-21T09:06:00.777Z,25.45
2023-03-21T09:11:02.248Z,25.05
2023-03-21T09:16:05.180Z,22.52
2023-03-21T09:21:12.750Z,21.70
2023-03-21T09:26:14.299Z,21.00
2023-03-21T09:31:22.880Z,22.80
2023-03-21T09:36:27.256Z,24.88
2023-03-21T09:41:35.065Z,25.10
2023-03-21T09:46:45.670Z,30.25
2023-03-21T09:51:52.788Z,28.17
2023-03-21T09:57:00.998Z,24.13
2023-03-21T10:02:03.339Z,23.88
2023-03-21T10:07:04.911Z,29.67
2023-03-21T10:12:08.346Z,27.15
2023-03-21T10:17:15.865Z,27.88
2023-03-21T10:22:17.266Z,26.27
2023-03-21T10:27:18.792Z,22.35
2023-03-21T10:32:22.884Z,24.92
2023-03-21T10:37:26.078Z,25.75
2023-03-21T10:42:29.336Z,23.55
2023-03-21T10:47:33.926Z,23.13
2023-03-21T10:52:36.550Z,20.95
2023-03-21T10:57:38.402Z,17.50
2023-03-21T11:02:40.801Z,21.00
2023-03-21T11:07:42.288Z,23.25
2023-03-21T11:12:46.975Z,24.15
2023-03-21T11:17:48.351Z,20.17
2023-03-21T11:22:49.912Z,22.50
2023-03-21T11:27:55.571Z,23.65
2023-03-21T11:32:58.109Z,23.85
2023-03-21T11:38:00.656Z,21.45
2023-03-21T11:43:24.784Z,25.75
2023-03-21T11:48:26.887Z,27.33
2023-03-21T11:53:36.636Z,25.23
2023-03-21T12:03:48.767Z,27.15
2023-03-21T12:08:57.725Z,23.42
2023-03-21T12:14:13.213Z,22.80
2023-03-21T12:19:14.646Z,27.83
2023-03-21T12:24:20.718Z,21.80
2023-03-21T12:29:25.929Z,25.02
2023-03-21T12:34:53.802Z,25.70
2023-03-21T12:39:58.615Z,22.52
2023-03-21T12:45:18.671Z,27.77
2023-03-21T12:50:26.302Z,23.30
2023-03-21T12:55:29.448Z,26.35
2023-03-21T13:00:33.695Z,21.55
2023-03-21T13:05:38.904Z,22.35
2023-03-21T13:10:42.060Z,26.55
2023-03-21T13:15:59.554Z,22.17
2023-03-21T13:21:03.427Z,23.15
2023-03-21T13:26:08.629Z,25.55
2023-03-21T13:31:16.404Z,18.65
2023-03-21T13:36:25.817Z,22.70
2023-03-21T13:41:32.048Z,22.35
2023-03-21T13:46:54.404Z,17.25
2023-03-21T13:51:58.660Z,16.48
2023-03-21T13:57:01.544Z,15.23
2023-03-21T14:02:02.967Z,17.33
2023-03-21T14:07:09.813Z,17.70
2023-03-21T14:12:14.578Z,17.25
2023-03-21T14:17:30.423Z,23.48
2023-03-21T14:22:31.868Z,17.77
2023-03-21T14:27:34.124Z,14.50
2023-03-21T14:32:35.670Z,17.35
2023-03-21T14:37:38.738Z,16.55
2023-03-21T14:42:41.112Z,16.15
2023-03-21T14:47:53.979Z,21.02
2023-03-21T14:52:55.423Z,16.55
2023-03-21T14:57:56.982Z,19.30
2023-03-21T15:02:59.341Z,17.73
2023-03-21T15:08:02.373Z,14.45
2023-03-21T15:13:14.038Z,16.33
2023-03-21T15:18:18.009Z,17.67
2023-03-21T15:23:39.657Z,20.77
2023-03-21T15:28:41.399Z,19.60
2023-03-21T15:33:45.589Z,16.45
2023-03-21T15:38:48.931Z,17.90
2023-03-21T15:44:02.600Z,17.70
2023-03-21T15:49:08.288Z,18.70
2023-03-21T15:54:15.890Z,12.63
2023-03-21T15:59:20.905Z,12.77
2023-03-21T16:04:23.757Z,11.07
2023-03-21T16:09:26.191Z,12.45
2023-03-21T16:14:27.924Z,11.88
2023-03-21T16:19:30.172Z,13.02
2023-03-21T16:24:31.558Z,11.40
2023-03-21T16:29:32.991Z,14.50
2023-03-21T16:34:34.389Z,11.45
2023-03-21T16:39:35.859Z,13.65
2023-03-21T16:44:39.492Z,10.75
2023-03-21T16:49:42.126Z,10.55
2023-03-21T16:54:43.778Z,9.50
2023-03-21T16:59:45.231Z,9.57
2023-03-21T17:04:46.862Z,8.90
2023-03-21T17:09:48.258Z,11.35
2023-03-21T17:14:49.669Z,10.00
2023-03-21T17:19:51.141Z,10.85
2023-03-21T17:24:52.592Z,12.68
2023-03-21T17:29:54.050Z,11.65
2023-03-21T17:34:55.604Z,12.52
2023-03-21T17:39:56.969Z,12.65
2023-03-21T17:44:58.417Z,10.93
2023-03-21T17:49:59.867Z,9.85
2023-03-21T17:55:01.522Z,14.73
2023-03-21T18:00:05.221Z,11.00
2023-03-21T18:05:07.440Z,12.93
2023-03-21T18:10:15.323Z,14.98
2023-03-21T18:15:18.926Z,10.00
2023-03-21T18:20:22.569Z,8.77
2023-03-21T18:25:25.043Z,9.77
2023-03-21T18:30:50.128Z,12.60
2023-03-21T18:35:55.911Z,10.48
2023-03-21T18:40:59.844Z,6.05
2023-03-21T18:46:01.463Z,9.90
2023-03-21T18:51:03.448Z,9.02
2023-03-21T18:56:09.878Z,5.72
2023-03-21T19:01:12.612Z,6.82
2023-03-21T19:06:16.270Z,10.48
2023-03-21T19:11:21.190Z,8.40
2023-03-21T19:16:26.922Z,9.98
2023-03-21T19:21:31.633Z,8.38
2023-03-21T19:26:33.065Z,7.97
2023-03-21T19:31:34.479Z,11.77
2023-03-21T19:36:36.060Z,9.27
2023-03-21T19:41:39.969Z,11.38
2023-03-21T19:46:42.658Z,13.80
2023-03-21T19:51:44.169Z,12.63
2023-03-21T19:56:48.162Z,14.10
2023-03-21T20:01:52.985Z,10.07
2023-03-21T20:07:00.029Z,13.52
2023-03-21T20:12:02.560Z,17.15
2023-03-21T20:17:04.473Z,12.02
2023-03-21T20:22:12.520Z,16.85
2023-03-21T20:27:25.117Z,16.27
2023-03-21T20:32:27.333Z,12.63
2023-03-21T20:37:28.736Z,14.13
2023-03-21T20:42:30.137Z,13.57
2023-03-21T20:47:32.252Z,15.20
2023-03-21T20:52:57.793Z,17.25
2023-03-21T20:57:55.297Z,18.27
2023-03-21T21:02:58.030Z,20.58
2023-03-21T21:08:00.811Z,20.05
2023-03-21T21:13:02.272Z,13.55
2023-03-21T21:18:06.404Z,18.60
2023-03-21T21:23:09.635Z,16.90
2023-03-21T21:28:11.814Z,17.52
2023-03-21T21:33:18.014Z,12.35
2023-03-21T21:38:19.850Z,15.75
2023-03-21T21:43:21.354Z,20.98
2023-03-21T21:48:23.179Z,19.13
2023-03-21T21:53:28.155Z,25.33
2023-03-21T21:58:33.703Z,12.90
2023-03-21T22:03:36.564Z,16.67
2023-03-21T22:08:38.272Z,18.42
2023-03-21T22:13:39.698Z,16.20
2023-03-21T22:18:43.170Z,16.45
2023-03-21T22:23:44.889Z,16.15
2023-03-21T22:28:46.325Z,16.00
2023-03-21T22:33:48.682Z,16.30
2023-03-21T22:38:50.082Z,16.92
2023-03-21T22:43:51.510Z,13.20
2023-03-21T22:48:52.899Z,18.25
2023-03-21T22:53:55.977Z,15.15
2023-03-21T22:59:00.187Z,15.07
2023-03-21T23:04:01.619Z,16.70
2023-03-21T23:09:03.299Z,13.98
2023-03-21T23:14:08.180Z,16.67
2023-03-21T23:19:10.448Z,14.38
2023-03-21T23:24:12.207Z,15.88
2023-03-21T23:29:14.017Z,15.00
2023-03-21T23:34:15.416Z,14.30
2023-03-21T23:39:18.500Z,14.65
2023-03-21T23:44:19.950Z,17.70
2023-03-21T23:49:21.321Z,8.40
2023-03-21T23:54:22.758Z,13.50
2023-03-21T23:59:25.035Z,11.25
